sensor_id;sensor_type;location;lat;lon;timestamp;pressure;altitude;pressure_sealevel;temperature;humidity
46955;BME280;32708;51.212;6.788;2024-01-30T00:01:26;102150.28;;;11.34;100.00
46955;BME280;32708;51.212;6.788;2024-01-30T00:03:53;102154.03;;;11.67;100.00
46955;BME280;32708;51.212;6.788;2024-01-30T00:06:19;102157.06;;;11.41;100.00
46955;BME280;32708;51.212;6.788;2024-01-30T00:08:49;102150.56;;;11.37;100.00
46955;BME280;32708;51.212;6.788;2024-01-30T00:11:16;102154.63;;;11.40;100.00
46955;BME280;32708;51.212;6.788;2024-01-30T00:13:47;102149.03;;;11.50;100.00
46955;BME280;32708;51.212;6.788;2024-01-30T00:16:24;102143.38;;;11.17;100.00
46955;BME280;32708;51.212;6.788;2024-01-30T00:18:52;102147.41;;;11.49;100.00
46955;BME280;32708;51.212;6.788;2024-01-30T00:21:19;102138.59;;;11.28;100.00
46955;BME280;32708;51.212;6.788;2024-01-30T00:23:47;102139.59;;;11.37;100.00
46955;BME280;32708;51.212;6.788;2024-01-30T00:26:14;102144.34;;;11.26;100.00
46955;BME280;32708;51.212;6.788;2024-01-30T00:28:44;102138.00;;;11.36;100.00
46955;BME280;32708;51.212;6.788;2024-01-30T00:31:10;102140.75;;;11.55;100.00
46955;BME280;32708;51.212;6.788;2024-01-30T00:33:40;102140.94;;;11.40;100.00
46955;BME280;32708;51.212;6.788;2024-01-30T00:36:09;102130.97;;;11.25;100.00
46955;BME280;32708;51.212;6.788;2024-01-30T00:38:37;102135.94;;;11.23;100.00
46955;BME280;32708;51.212;6.788;2024-01-30T00:41:09;102131.69;;;11.07;100.00
46955;BME280;32708;51.212;6.788;2024-01-30T00:43:36;102130.25;;;11.14;100.00
46955;BME280;32708;51.212;6.788;2024-01-30T00:46:02;102129.69;;;11.17;100.00
46955;BME280;32708;51.212;6.788;2024-01-30T00:48:30;102146.75;;;11.04;100.00
46955;BME280;32708;51.212;6.788;2024-01-30T00:50:57;102142.03;;;11.15;100.00
46955;BME280;32708;51.212;6.788;2024-01-30T00:53:23;102149.94;;;11.16;100.00
46955;BME280;32708;51.212;6.788;2024-01-30T00:55:49;102126.91;;;11.22;100.00
46955;BME280;32708;51.212;6.788;2024-01-30T00:58:16;102137.25;;;11.25;100.00
46955;BME280;32708;51.212;6.788;2024-01-30T01:00:42;102135.84;;;11.04;100.00
46955;BME280;32708;51.212;6.788;2024-01-30T01:03:08;102134.88;;;10.90;100.00
46955;BME280;32708;51.212;6.788;2024-01-30T01:05:34;102138.81;;;11.08;100.00
46955;BME280;32708;51.212;6.788;2024-01-30T01:08:00;102144.94;;;10.94;100.00
46955;BME280;32708;51.212;6.788;2024-01-30T01:10:27;102146.25;;;11.02;100.00
46955;BME280;32708;51.212;6.788;2024-01-30T01:12:54;102146.25;;;11.02;100.00
46955;BME280;32708;51.212;6.788;2024-01-30T01:15:21;102143.44;;;11.07;100.00
46955;BME280;32708;51.212;6.788;2024-01-30T01:17:47;102148.91;;;11.07;100.00
46955;BME280;32708;51.212;6.788;2024-01-30T01:20:14;102145.59;;;11.15;100.00
46955;BME280;32708;51.212;6.788;2024-01-30T01:22:40;102152.91;;;10.91;100.00
46955;BME280;32708;51.212;6.788;2024-01-30T01:25:08;102141.34;;;10.99;100.00
46955;BME280;32708;51.212;6.788;2024-01-30T01:27:36;102135.94;;;10.94;100.00
46955;BME280;32708;51.212;6.788;2024-01-30T01:30:09;102138.59;;;10.99;100.00
46955;BME280;32708;51.212;6.788;2024-01-30T01:32:36;102146.97;;;10.79;100.00
46955;BME280;32708;51.212;6.788;2024-01-30T01:35:04;102148.72;;;10.98;100.00
46955;BME280;32708;51.212;6.788;2024-01-30T01:37:33;102133.53;;;10.87;100.00
46955;BME280;32708;51.212;6.788;2024-01-30T01:40:00;102136.13;;;11.02;100.00
46955;BME280;32708;51.212;6.788;2024-01-30T01:42:26;102135.41;;;10.92;100.00
46955;BME280;32708;51.212;6.788;2024-01-30T01:44:52;102136.94;;;11.03;100.00
46955;BME280;32708;51.212;6.788;2024-01-30T01:47:18;102135.34;;;10.97;100.00
46955;BME280;32708;51.212;6.788;2024-01-30T01:49:44;102136.81;;;10.84;100.00
46955;BME280;32708;51.212;6.788;2024-01-30T01:52:11;102141.41;;;10.94;100.00
46955;BME280;32708;51.212;6.788;2024-01-30T01:54:38;102125.38;;;11.11;100.00
46955;BME280;32708;51.212;6.788;2024-01-30T01:57:04;102131.66;;;11.12;100.00
46955;BME280;32708;51.212;6.788;2024-01-30T01:59:31;102126.53;;;11.05;100.00
46955;BME280;32708;51.212;6.788;2024-01-30T02:01:57;102131.13;;;10.81;100.00
46955;BME280;32708;51.212;6.788;2024-01-30T02:04:24;102129.19;;;10.86;100.00
46955;BME280;32708;51.212;6.788;2024-01-30T02:06:50;102131.44;;;10.79;100.00
46955;BME280;32708;51.212;6.788;2024-01-30T02:09:17;102126.81;;;10.74;100.00
46955;BME280;32708;51.212;6.788;2024-01-30T02:11:44;102127.97;;;10.63;100.00
46955;BME280;32708;51.212;6.788;2024-01-30T02:14:11;102126.19;;;10.83;100.00
46955;BME280;32708;51.212;6.788;2024-01-30T02:16:37;102118.72;;;10.93;100.00
46955;BME280;32708;51.212;6.788;2024-01-30T02:19:03;102127.50;;;10.90;100.00
46955;BME280;32708;51.212;6.788;2024-01-30T02:21:33;102116.47;;;11.00;100.00
46955;BME280;32708;51.212;6.788;2024-01-30T02:24:01;102113.53;;;10.92;100.00
46955;BME280;32708;51.212;6.788;2024-01-30T02:26:28;102111.69;;;10.87;100.00
46955;BME280;32708;51.212;6.788;2024-01-30T02:28:54;102111.28;;;10.99;100.00
46955;BME280;32708;51.212;6.788;2024-01-30T02:31:20;102100.16;;;10.61;100.00
46955;BME280;32708;51.212;6.788;2024-01-30T02:33:46;102114.13;;;10.55;100.00
46955;BME280;32708;51.212;6.788;2024-01-30T02:36:13;102107.44;;;10.71;100.00
46955;BME280;32708;51.212;6.788;2024-01-30T02:38:41;102105.50;;;10.71;100.00
46955;BME280;32708;51.212;6.788;2024-01-30T02:41:07;102106.38;;;10.67;100.00
46955;BME280;32708;51.212;6.788;2024-01-30T02:43:33;102101.75;;;10.67;100.00
46955;BME280;32708;51.212;6.788;2024-01-30T02:46:00;102096.31;;;10.62;100.00
46955;BME280;32708;51.212;6.788;2024-01-30T02:48:26;102100.63;;;10.68;100.00
46955;BME280;32708;51.212;6.788;2024-01-30T02:50:53;102106.25;;;10.48;100.00
46955;BME280;32708;51.212;6.788;2024-01-30T02:53:19;102101.56;;;10.54;100.00
46955;BME280;32708;51.212;6.788;2024-01-30T02:55:45;102092.97;;;10.70;100.00
46955;BME280;32708;51.212;6.788;2024-01-30T02:58:11;102093.50;;;10.72;100.00
46955;BME280;32708;51.212;6.788;2024-01-30T03:00:38;102093.44;;;10.78;100.00
46955;BME280;32708;51.212;6.788;2024-01-30T03:03:04;102086.38;;;10.71;100.00
46955;BME280;32708;51.212;6.788;2024-01-30T03:05:30;102087.56;;;10.94;100.00
46955;BME280;32708;51.212;6.788;2024-01-30T03:07:56;102077.78;;;10.88;100.00
46955;BME280;32708;51.212;6.788;2024-01-30T03:10:23;102085.97;;;10.59;100.00
46955;BME280;32708;51.212;6.788;2024-01-30T03:12:49;102074.13;;;10.69;100.00
46955;BME280;32708;51.212;6.788;2024-01-30T03:15:15;102081.47;;;10.73;100.00
46955;BME280;32708;51.212;6.788;2024-01-30T03:17:41;102078.34;;;10.85;100.00
46955;BME280;32708;51.212;6.788;2024-01-30T03:20:08;102089.59;;;10.79;100.00
46955;BME280;32708;51.212;6.788;2024-01-30T03:22:35;102077.53;;;10.85;100.00
46955;BME280;32708;51.212;6.788;2024-01-30T03:25:01;102075.13;;;10.78;100.00
46955;BME280;32708;51.212;6.788;2024-01-30T03:27:28;102076.00;;;10.73;100.00
46955;BME280;32708;51.212;6.788;2024-01-30T03:29:55;102076.38;;;10.91;100.00
46955;BME280;32708;51.212;6.788;2024-01-30T03:32:21;102066.09;;;10.83;100.00
46955;BME280;32708;51.212;6.788;2024-01-30T03:34:47;102070.47;;;10.79;100.00
46955;BME280;32708;51.212;6.788;2024-01-30T03:37:14;102076.34;;;10.67;100.00
46955;BME280;32708;51.212;6.788;2024-01-30T03:39:40;102068.63;;;11.03;100.00
46955;BME280;32708;51.212;6.788;2024-01-30T03:42:06;102078.81;;;10.63;100.00
46955;BME280;32708;51.212;6.788;2024-01-30T03:44:33;102075.56;;;10.61;100.00
46955;BME280;32708;51.212;6.788;2024-01-30T03:46:59;102074.75;;;10.90;100.00
46955;BME280;32708;51.212;6.788;2024-01-30T03:49:25;102061.63;;;10.63;100.00
46955;BME280;32708;51.212;6.788;2024-01-30T03:51:51;102068.69;;;10.93;100.00
46955;BME280;32708;51.212;6.788;2024-01-30T03:54:18;102063.59;;;10.86;100.00
46955;BME280;32708;51.212;6.788;2024-01-30T03:56:44;102061.72;;;10.82;100.00
46955;BME280;32708;51.212;6.788;2024-01-30T03:59:10;102064.59;;;10.66;100.00
46955;BME280;32708;51.212;6.788;2024-01-30T04:01:36;102065.28;;;10.82;100.00
46955;BME280;32708;51.212;6.788;2024-01-30T04:04:02;102069.72;;;11.02;100.00
46955;BME280;32708;51.212;6.788;2024-01-30T04:06:28;102058.16;;;11.10;100.00
46955;BME280;32708;51.212;6.788;2024-01-30T04:08:55;102063.97;;;11.03;100.00
46955;BME280;32708;51.212;6.788;2024-01-30T04:11:21;102068.38;;;10.70;100.00
46955;BME280;32708;51.212;6.788;2024-01-30T04:13:47;102063.81;;;10.90;100.00
46955;BME280;32708;51.212;6.788;2024-01-30T04:16:23;102065.31;;;10.77;100.00
46955;BME280;32708;51.212;6.788;2024-01-30T04:18:51;102060.19;;;10.70;100.00
46955;BME280;32708;51.212;6.788;2024-01-30T04:21:17;102063.31;;;10.88;100.00
46955;BME280;32708;51.212;6.788;2024-01-30T04:23:44;102054.84;;;10.84;100.00
46955;BME280;32708;51.212;6.788;2024-01-30T04:26:10;102051.91;;;10.81;100.00
46955;BME280;32708;51.212;6.788;2024-01-30T04:28:36;102047.06;;;10.72;100.00
46955;BME280;32708;51.212;6.788;2024-01-30T04:31:03;102043.75;;;10.75;100.00
46955;BME280;32708;51.212;6.788;2024-01-30T04:33:29;102041.88;;;10.42;100.00
46955;BME280;32708;51.212;6.788;2024-01-30T04:35:55;102048.16;;;10.71;100.00
46955;BME280;32708;51.212;6.788;2024-01-30T04:38:21;102044.03;;;10.74;100.00
46955;BME280;32708;51.212;6.788;2024-01-30T04:40:48;102049.59;;;10.64;100.00
46955;BME280;32708;51.212;6.788;2024-01-30T04:43:14;102055.41;;;10.86;100.00
46955;BME280;32708;51.212;6.788;2024-01-30T04:45:42;102052.38;;;10.59;100.00
46955;BME280;32708;51.212;6.788;2024-01-30T04:48:08;102050.22;;;10.56;100.00
46955;BME280;32708;51.212;6.788;2024-01-30T04:50:34;102057.69;;;10.45;100.00
46955;BME280;32708;51.212;6.788;2024-01-30T04:53:00;102053.72;;;10.61;100.00
46955;BME280;32708;51.212;6.788;2024-01-30T04:55:27;102051.03;;;10.56;100.00
46955;BME280;32708;51.212;6.788;2024-01-30T04:57:53;102053.81;;;10.51;100.00
46955;BME280;32708;51.212;6.788;2024-01-30T05:00:19;102053.69;;;10.66;100.00
46955;BME280;32708;51.212;6.788;2024-01-30T05:02:45;102050.75;;;10.58;100.00
46955;BME280;32708;51.212;6.788;2024-01-30T05:05:11;102048.91;;;10.77;100.00
46955;BME280;32708;51.212;6.788;2024-01-30T05:07:41;102043.75;;;10.75;100.00
46955;BME280;32708;51.212;6.788;2024-01-30T05:10:07;102043.75;;;10.75;100.00
46955;BME280;32708;51.212;6.788;2024-01-30T05:12:34;102040.34;;;10.60;100.00
46955;BME280;32708;51.212;6.788;2024-01-30T05:15:00;102044.06;;;10.40;100.00
46955;BME280;32708;51.212;6.788;2024-01-30T05:17:26;102041.69;;;10.28;100.00
46955;BME280;32708;51.212;6.788;2024-01-30T05:19:53;102041.00;;;10.75;100.00
46955;BME280;32708;51.212;6.788;2024-01-30T05:22:22;102044.47;;;10.57;100.00
46955;BME280;32708;51.212;6.788;2024-01-30T05:24:48;102037.38;;;10.56;100.00
46955;BME280;32708;51.212;6.788;2024-01-30T05:27:14;102036.34;;;10.52;100.00
46955;BME280;32708;51.212;6.788;2024-01-30T05:29:41;102035.34;;;10.38;100.00
46955;BME280;32708;51.212;6.788;2024-01-30T05:32:07;102041.78;;;10.52;100.00
46955;BME280;32708;51.212;6.788;2024-01-30T05:34:33;102039.44;;;10.40;100.00
46955;BME280;32708;51.212;6.788;2024-01-30T05:36:59;102036.13;;;10.43;100.00
46955;BME280;32708;51.212;6.788;2024-01-30T05:39:26;102044.38;;;10.38;100.00
46955;BME280;32708;51.212;6.788;2024-01-30T05:41:52;102038.28;;;10.46;100.00
46955;BME280;32708;51.212;6.788;2024-01-30T05:44:18;102039.59;;;10.54;100.00
46955;BME280;32708;51.212;6.788;2024-01-30T05:46:44;102038.44;;;10.21;100.00
46955;BME280;32708;51.212;6.788;2024-01-30T05:49:10;102040.94;;;10.17;100.00
46955;BME280;32708;51.212;6.788;2024-01-30T05:51:36;102037.38;;;10.56;100.00
46955;BME280;32708;51.212;6.788;2024-01-30T05:54:03;102041.97;;;10.61;100.00
46955;BME280;32708;51.212;6.788;2024-01-30T05:56:30;102047.81;;;10.49;100.00
46955;BME280;32708;51.212;6.788;2024-01-30T05:58:56;102033.66;;;10.42;100.00
46955;BME280;32708;51.212;6.788;2024-01-30T06:01:22;102023.47;;;10.24;100.00
46955;BME280;32708;51.212;6.788;2024-01-30T06:03:48;102028.50;;;10.40;100.00
46955;BME280;32708;51.212;6.788;2024-01-30T06:06:15;102036.72;;;10.35;100.00
46955;BME280;32708;51.212;6.788;2024-01-30T06:08:41;102046.28;;;10.38;100.00
46955;BME280;32708;51.212;6.788;2024-01-30T06:11:11;102039.53;;;10.30;100.00
46955;BME280;32708;51.212;6.788;2024-01-30T06:13:38;102042.88;;;10.17;100.00
46955;BME280;32708;51.212;6.788;2024-01-30T06:16:04;102034.75;;;10.46;100.00
46955;BME280;32708;51.212;6.788;2024-01-30T06:18:30;102034.09;;;10.20;100.00
46955;BME280;32708;51.212;6.788;2024-01-30T06:20:57;102034.09;;;10.25;100.00
46955;BME280;32708;51.212;6.788;2024-01-30T06:23:23;102029.22;;;10.17;100.00
46955;BME280;32708;51.212;6.788;2024-01-30T06:25:49;102038.50;;;10.16;100.00
46955;BME280;32708;51.212;6.788;2024-01-30T06:28:16;102029.75;;;10.24;100.00
46955;BME280;32708;51.212;6.788;2024-01-30T06:30:42;102024.41;;;10.43;100.00
46955;BME280;32708;51.212;6.788;2024-01-30T06:33:12;102022.22;;;10.40;100.00
46955;BME280;32708;51.212;6.788;2024-01-30T06:35:40;102022.66;;;10.23;100.00
46955;BME280;32708;51.212;6.788;2024-01-30T06:38:06;102015.78;;;10.26;100.00
46955;BME280;32708;51.212;6.788;2024-01-30T06:40:33;102027.22;;;10.33;100.00
46955;BME280;32708;51.212;6.788;2024-01-30T06:42:59;102013.84;;;10.31;100.00
46955;BME280;32708;51.212;6.788;2024-01-30T06:45:25;102021.78;;;10.28;100.00
46955;BME280;32708;51.212;6.788;2024-01-30T06:47:51;102018.84;;;10.14;100.00
46955;BME280;32708;51.212;6.788;2024-01-30T06:50:17;102023.44;;;10.58;100.00
46955;BME280;32708;51.212;6.788;2024-01-30T06:52:44;102026.16;;;10.29;100.00
46955;BME280;32708;51.212;6.788;2024-01-30T06:55:10;102031.34;;;10.59;100.00
46955;BME280;32708;51.212;6.788;2024-01-30T06:57:37;102038.66;;;10.35;100.00
46955;BME280;32708;51.212;6.788;2024-01-30T07:00:05;102041.69;;;10.62;100.00
46955;BME280;32708;51.212;6.788;2024-01-30T07:02:32;102041.66;;;10.67;100.00
46955;BME280;32708;51.212;6.788;2024-01-30T07:04:58;102042.78;;;10.32;100.00
46955;BME280;32708;51.212;6.788;2024-01-30T07:07:24;102050.47;;;10.59;100.00
46955;BME280;32708;51.212;6.788;2024-01-30T07:09:50;102038.06;;;10.43;100.00
46955;BME280;32708;51.212;6.788;2024-01-30T07:12:23;102045.78;;;10.65;100.00
46955;BME280;32708;51.212;6.788;2024-01-30T07:14:51;102045.38;;;10.77;100.00
46955;BME280;32708;51.212;6.788;2024-01-30T07:17:18;102039.63;;;10.78;100.00
46955;BME280;32708;51.212;6.788;2024-01-30T07:19:44;102042.59;;;10.82;100.00
46955;BME280;32708;51.212;6.788;2024-01-30T07:22:10;102045.09;;;10.78;100.00
46955;BME280;32708;51.212;6.788;2024-01-30T07:24:43;102043.41;;;10.82;100.00
46955;BME280;32708;51.212;6.788;2024-01-30T07:27:15;102043.13;;;10.84;100.00
46955;BME280;32708;51.212;6.788;2024-01-30T07:29:44;102044.81;;;10.80;100.00
46955;BME280;32708;51.212;6.788;2024-01-30T07:32:10;102049.84;;;10.67;100.00
46955;BME280;32708;51.212;6.788;2024-01-30T07:34:36;102056.91;;;10.73;100.00
46955;BME280;32708;51.212;6.788;2024-01-30T07:37:03;102053.81;;;10.80;100.00
46955;BME280;32708;51.212;6.788;2024-01-30T07:39:29;102057.41;;;10.75;100.00
46955;BME280;32708;51.212;6.788;2024-01-30T07:41:56;102044.09;;;10.69;100.00
46955;BME280;32708;51.212;6.788;2024-01-30T07:44:22;102060.25;;;10.65;100.00
46955;BME280;32708;51.212;6.788;2024-01-30T07:46:49;102051.22;;;10.94;100.00
46955;BME280;32708;51.212;6.788;2024-01-30T07:49:16;102059.09;;;11.00;100.00
46955;BME280;32708;51.212;6.788;2024-01-30T07:51:44;102063.19;;;10.98;100.00
46955;BME280;32708;51.212;6.788;2024-01-30T07:54:11;102076.28;;;11.01;100.00
46955;BME280;32708;51.212;6.788;2024-01-30T07:56:41;102070.22;;;10.80;100.00
46955;BME280;32708;51.212;6.788;2024-01-30T07:59:12;102072.47;;;11.02;100.00
46955;BME280;32708;51.212;6.788;2024-01-30T08:01:38;102080.53;;;11.12;100.00
46955;BME280;32708;51.212;6.788;2024-01-30T08:04:06;102082.47;;;11.12;100.00
46955;BME280;32708;51.212;6.788;2024-01-30T08:06:33;102071.28;;;11.32;100.00
46955;BME280;32708;51.212;6.788;2024-01-30T08:09:00;102081.81;;;10.96;100.00
46955;BME280;32708;51.212;6.788;2024-01-30T08:11:27;102075.63;;;10.85;100.00
46955;BME280;32708;51.212;6.788;2024-01-30T08:13:58;102072.31;;;10.88;100.00
46955;BME280;32708;51.212;6.788;2024-01-30T08:16:24;102074.38;;;11.25;100.00
46955;BME280;32708;51.212;6.788;2024-01-30T08:18:51;102078.16;;;11.06;100.00
46955;BME280;32708;51.212;6.788;2024-01-30T08:21:19;102085.56;;;11.00;100.00
46955;BME280;32708;51.212;6.788;2024-01-30T08:23:46;102083.84;;;11.09;100.00
46955;BME280;32708;51.212;6.788;2024-01-30T08:26:12;102077.88;;;11.31;100.00
46955;BME280;32708;51.212;6.788;2024-01-30T08:28:39;102094.63;;;11.24;100.00
46955;BME280;32708;51.212;6.788;2024-01-30T08:31:06;102078.09;;;11.58;100.00
46955;BME280;32708;51.212;6.788;2024-01-30T08:33:36;102085.63;;;11.91;100.00
46955;BME280;32708;51.212;6.788;2024-01-30T08:36:03;102081.03;;;11.43;100.00
46955;BME280;32708;51.212;6.788;2024-01-30T08:38:30;102084.53;;;11.68;100.00
46955;BME280;32708;51.212;6.788;2024-01-30T08:40:57;102077.47;;;11.85;100.00
46955;BME280;32708;51.212;6.788;2024-01-30T08:43:24;102077.91;;;11.93;100.00
46955;BME280;32708;51.212;6.788;2024-01-30T08:45:51;102086.91;;;11.74;100.00
46955;BME280;32708;51.212;6.788;2024-01-30T08:48:17;102085.09;;;11.89;100.00
46955;BME280;32708;51.212;6.788;2024-01-30T08:50:45;102094.44;;;12.25;100.00
46955;BME280;32708;51.212;6.788;2024-01-30T08:53:11;102081.63;;;12.02;100.00
46955;BME280;32708;51.212;6.788;2024-01-30T08:55:38;102081.25;;;12.27;100.00
46955;BME280;32708;51.212;6.788;2024-01-30T08:58:06;102082.34;;;12.26;100.00
46955;BME280;32708;51.212;6.788;2024-01-30T09:00:33;102100.41;;;11.90;100.00
46955;BME280;32708;51.212;6.788;2024-01-30T09:03:00;102093.34;;;12.07;100.00
46955;BME280;32708;51.212;6.788;2024-01-30T09:05:26;102108.56;;;12.13;100.00
46955;BME280;32708;51.212;6.788;2024-01-30T09:07:53;102102.72;;;12.01;100.00
46955;BME280;32708;51.212;6.788;2024-01-30T09:10:20;102106.41;;;11.92;100.00
46955;BME280;32708;51.212;6.788;2024-01-30T09:12:47;102113.50;;;11.93;100.00
46955;BME280;32708;51.212;6.788;2024-01-30T09:15:15;102115.50;;;12.06;100.00
46955;BME280;32708;51.212;6.788;2024-01-30T09:17:42;102107.69;;;11.75;100.00
46955;BME280;32708;51.212;6.788;2024-01-30T09:20:10;102103.44;;;12.07;100.00
46955;BME280;32708;51.212;6.788;2024-01-30T09:22:37;102114.34;;;12.12;100.00
46955;BME280;32708;51.212;6.788;2024-01-30T09:25:04;102099.38;;;12.42;100.00
46955;BME280;32708;51.212;6.788;2024-01-30T09:27:30;102123.06;;;12.14;100.00
46955;BME280;32708;51.212;6.788;2024-01-30T09:30:00;102116.28;;;12.30;100.00
46955;BME280;32708;51.212;6.788;2024-01-30T09:32:27;102125.00;;;11.95;100.00
46955;BME280;32708;51.212;6.788;2024-01-30T09:34:53;102114.16;;;12.60;100.00
46955;BME280;32708;51.212;6.788;2024-01-30T09:37:20;102123.13;;;12.28;100.00
46955;BME280;32708;51.212;6.788;2024-01-30T09:39:46;102122.97;;;12.57;100.00
46955;BME280;32708;51.212;6.788;2024-01-30T09:42:37;102122.97;;;12.89;100.00
46955;BME280;32708;51.212;6.788;2024-01-30T09:45:06;102140.53;;;12.18;100.00
46955;BME280;32708;51.212;6.788;2024-01-30T09:47:42;102113.22;;;12.32;100.00
46955;BME280;32708;51.212;6.788;2024-01-30T09:50:11;102113.00;;;12.47;100.00
46955;BME280;32708;51.212;6.788;2024-01-30T09:52:38;102127.44;;;12.34;100.00
46955;BME280;32708;51.212;6.788;2024-01-30T09:55:07;102119.72;;;12.55;100.00
46955;BME280;32708;51.212;6.788;2024-01-30T09:57:37;102120.19;;;12.24;100.00
46955;BME280;32708;51.212;6.788;2024-01-30T10:00:06;102130.16;;;11.96;100.00
46955;BME280;32708;51.212;6.788;2024-01-30T10:02:40;102129.13;;;12.49;100.00
46955;BME280;32708;51.212;6.788;2024-01-30T10:05:08;102126.78;;;12.23;100.00
46955;BME280;32708;51.212;6.788;2024-01-30T10:07:35;102130.75;;;12.50;100.00
46955;BME280;32708;51.212;6.788;2024-01-30T10:10:05;102130.41;;;12.37;100.00
46955;BME280;32708;51.212;6.788;2024-01-30T10:12:35;102126.91;;;12.51;100.00
46955;BME280;32708;51.212;6.788;2024-01-30T10:15:07;102112.00;;;12.57;100.00
46955;BME280;32708;51.212;6.788;2024-01-30T10:17:37;102116.59;;;12.94;100.00
46955;BME280;32708;51.212;6.788;2024-01-30T10:20:08;102129.66;;;12.51;100.00
46955;BME280;32708;51.212;6.788;2024-01-30T10:22:41;102132.16;;;12.66;100.00
46955;BME280;32708;51.212;6.788;2024-01-30T10:25:10;102127.19;;;13.01;100.00
46955;BME280;32708;51.212;6.788;2024-01-30T10:27:39;102127.22;;;12.82;100.00
46955;BME280;32708;51.212;6.788;2024-01-30T10:30:07;102121.69;;;12.68;100.00
46955;BME280;32708;51.212;6.788;2024-01-30T10:32:37;102139.19;;;12.53;100.00
46955;BME280;32708;51.212;6.788;2024-01-30T10:35:04;102130.84;;;13.10;100.00
46955;BME280;32708;51.212;6.788;2024-01-30T10:37:31;102113.56;;;12.95;100.00
46955;BME280;32708;51.212;6.788;2024-01-30T10:40:03;102112.94;;;12.99;100.00
46955;BME280;32708;51.212;6.788;2024-01-30T10:42:36;102119.38;;;12.75;100.00
46955;BME280;32708;51.212;6.788;2024-01-30T10:45:10;102122.22;;;13.16;100.00
46955;BME280;32708;51.212;6.788;2024-01-30T10:47:50;102123.31;;;13.02;100.00
46955;BME280;32708;51.212;6.788;2024-01-30T10:50:19;102125.72;;;13.22;100.00
46955;BME280;32708;51.212;6.788;2024-01-30T10:52:47;102124.72;;;13.45;100.00
46955;BME280;32708;51.212;6.788;2024-01-30T10:55:15;102121.66;;;13.61;100.00
46955;BME280;32708;51.212;6.788;2024-01-30T10:57:42;102110.56;;;13.80;100.00
46955;BME280;32708;51.212;6.788;2024-01-30T11:00:14;102111.38;;;13.94;100.00
46955;BME280;32708;51.212;6.788;2024-01-30T11:02:45;102119.00;;;13.83;100.00
46955;BME280;32708;51.212;6.788;2024-01-30T11:05:12;102119.63;;;13.66;100.00
46955;BME280;32708;51.212;6.788;2024-01-30T11:07:40;102119.94;;;13.65;100.00
46955;BME280;32708;51.212;6.788;2024-01-30T11:10:09;102120.59;;;13.98;100.00
46955;BME280;32708;51.212;6.788;2024-01-30T11:12:40;102122.34;;;13.94;100.00
46955;BME280;32708;51.212;6.788;2024-01-30T11:15:12;102123.34;;;13.98;100.00
46955;BME280;32708;51.212;6.788;2024-01-30T11:20:29;102109.47;;;14.17;100.00
46955;BME280;32708;51.212;6.788;2024-01-30T11:23:00;102117.16;;;14.28;100.00
46955;BME280;32708;51.212;6.788;2024-01-30T11:25:32;102120.66;;;14.07;100.00
46955;BME280;32708;51.212;6.788;2024-01-30T11:28:00;102118.84;;;14.52;100.00
46955;BME280;32708;51.212;6.788;2024-01-30T11:30:33;102114.78;;;13.99;100.00
46955;BME280;32708;51.212;6.788;2024-01-30T11:33:09;102120.16;;;14.04;100.00
46955;BME280;32708;51.212;6.788;2024-01-30T11:35:44;102116.00;;;14.43;100.00
46955;BME280;32708;51.212;6.788;2024-01-30T11:38:14;102108.78;;;14.47;100.00
46955;BME280;32708;51.212;6.788;2024-01-30T11:40:41;102123.66;;;13.83;100.00
46955;BME280;32708;51.212;6.788;2024-01-30T11:43:09;102125.38;;;13.92;100.00
46955;BME280;32708;51.212;6.788;2024-01-30T11:45:36;102109.75;;;13.79;100.00
46955;BME280;32708;51.212;6.788;2024-01-30T11:48:04;102121.19;;;14.09;100.00
46955;BME280;32708;51.212;6.788;2024-01-30T11:50:34;102120.09;;;13.96;100.00
46955;BME280;32708;51.212;6.788;2024-01-30T11:53:01;102124.03;;;14.03;100.00
46955;BME280;32708;51.212;6.788;2024-01-30T11:55:30;102109.16;;;14.54;100.00
46955;BME280;32708;51.212;6.788;2024-01-30T11:58:00;102108.16;;;14.50;100.00
46955;BME280;32708;51.212;6.788;2024-01-30T12:00:26;102117.22;;;14.51;100.00
46955;BME280;32708;51.212;6.788;2024-01-30T12:02:55;102127.00;;;14.43;100.00
46955;BME280;32708;51.212;6.788;2024-01-30T12:05:23;102110.63;;;14.83;100.00
46955;BME280;32708;51.212;6.788;2024-01-30T12:07:50;102118.19;;;14.55;100.00
46955;BME280;32708;51.212;6.788;2024-01-30T12:10:17;102113.53;;;14.19;100.00
46955;BME280;32708;51.212;6.788;2024-01-30T12:12:49;102124.19;;;14.21;100.00
46955;BME280;32708;51.212;6.788;2024-01-30T12:15:24;102122.53;;;14.33;100.00
46955;BME280;32708;51.212;6.788;2024-01-30T12:17:51;102128.75;;;14.62;100.00
46955;BME280;32708;51.212;6.788;2024-01-30T12:20:20;102123.31;;;14.48;100.00
46955;BME280;32708;51.212;6.788;2024-01-30T12:22:51;102119.88;;;13.92;100.00
46955;BME280;32708;51.212;6.788;2024-01-30T12:25:22;102117.91;;;14.43;100.00
46955;BME280;32708;51.212;6.788;2024-01-30T12:27:53;102117.91;;;14.07;100.00
46955;BME280;32708;51.212;6.788;2024-01-30T12:30:25;102120.13;;;14.77;100.00
46955;BME280;32708;51.212;6.788;2024-01-30T12:32:51;102105.28;;;14.55;100.00
46955;BME280;32708;51.212;6.788;2024-01-30T12:35:20;102115.97;;;14.79;100.00
46955;BME280;32708;51.212;6.788;2024-01-30T12:37:49;102120.63;;;14.56;100.00
46955;BME280;32708;51.212;6.788;2024-01-30T12:40:23;102111.59;;;14.42;100.00
46955;BME280;32708;51.212;6.788;2024-01-30T12:42:52;102127.94;;;14.61;100.00
46955;BME280;32708;51.212;6.788;2024-01-30T12:45:19;102129.41;;;14.58;100.00